createdAt,value
2022-08-01T00:00:24.587Z,1005.72
2022-08-01T00:00:42.265Z,1005.42
2022-08-01T00:01:11.545Z,1005.42
2022-08-01T00:01:35.000Z,1005.62
2022-08-01T00:02:00.523Z,1005.62
2022-08-01T00:02:32.493Z,1005.62
2022-08-01T00:03:03.750Z,1005.52
2022-08-01T00:03:35.501Z,1005.42
2022-08-01T00:04:07.500Z,1005.42
2022-08-01T00:04:34.652Z,1005.62
2022-08-01T00:04:55.535Z,1005.62
2022-08-01T00:05:28.006Z,1005.62
2022-08-01T00:06:01.436Z,1005.52
2022-08-01T00:06:31.499Z,1005.52
2022-08-01T00:07:04.644Z,1005.93
2022-08-01T00:07:35.138Z,1005.72
2022-08-01T00:08:08.314Z,1005.72
2022-08-01T00:08:34.675Z,1005.62
2022-08-01T00:08:55.533Z,1005.62
2022-08-01T00:09:27.742Z,1005.62
2022-08-01T00:10:00.575Z,1005.62
2022-08-01T00:10:31.504Z,1005.62
2022-08-01T00:11:03.760Z,1005.82
2022-08-01T00:11:34.706Z,1005.82
2022-08-01T00:11:59.431Z,1005.82
2022-08-01T00:12:25.500Z,1005.82
2022-08-01T00:12:55.538Z,1005.62
2022-08-01T00:13:28.413Z,1005.62
2022-08-01T00:13:59.559Z,1005.72
2022-08-01T00:14:32.921Z,1005.72
2022-08-01T00:15:03.904Z,1005.72
2022-08-01T00:15:36.341Z,1005.72
2022-08-01T00:16:07.522Z,1005.72
2022-08-01T00:16:35.075Z,1005.62
2022-08-01T00:16:55.488Z,1005.62
2022-08-01T00:17:27.791Z,1005.62
2022-08-01T00:18:01.238Z,1005.62
2022-08-01T00:18:31.500Z,1005.62
2022-08-01T00:19:07.075Z,1005.82
2022-08-01T00:19:34.634Z,1005.62
2022-08-01T00:19:51.759Z,1005.62
2022-08-01T00:20:23.631Z,1005.62
2022-08-01T00:20:40.728Z,1005.72
2022-08-01T00:21:12.345Z,1005.72
2022-08-01T00:21:34.661Z,1005.42
2022-08-01T00:22:00.272Z,1005.42
2022-08-01T00:22:31.513Z,1005.42
2022-08-01T00:23:03.785Z,1005.82
2022-08-01T00:23:34.684Z,1005.62
2022-08-01T00:23:51.773Z,1005.62
2022-08-01T00:24:25.594Z,1005.62
2022-08-01T00:24:55.996Z,1005.72
2022-08-01T00:25:33.756Z,1005.72
2022-08-01T00:25:59.561Z,1005.52
2022-08-01T00:26:33.156Z,1005.52
2022-08-01T00:27:03.817Z,1005.52
2022-08-01T00:27:37.541Z,1005.62
2022-08-01T00:28:07.488Z,1005.62
2022-08-01T00:28:36.014Z,1005.72
2022-08-01T00:28:56.390Z,1005.72
2022-08-01T00:30:10.755Z,1005.72
2022-08-01T00:30:31.460Z,1005.82
2022-08-01T00:31:05.375Z,1005.72
2022-08-01T00:31:34.618Z,1005.72
2022-08-01T00:31:51.926Z,1005.72
2022-08-01T00:32:24.496Z,1005.72
2022-08-01T00:32:41.672Z,1005.52
2022-08-01T00:33:12.393Z,1005.52
2022-08-01T00:33:35.731Z,1005.72
2022-08-01T00:33:59.591Z,1005.72
2022-08-01T00:34:31.500Z,1005.72
2022-08-01T00:35:03.879Z,1006.13
2022-08-01T00:35:34.631Z,1005.72
2022-08-01T00:35:52.509Z,1005.72
2022-08-01T00:36:25.374Z,1005.72
2022-08-01T00:36:43.593Z,1005.72
2022-08-01T00:37:13.701Z,1005.72
2022-08-01T00:37:35.392Z,1005.72
2022-08-01T00:37:59.525Z,1005.72
2022-08-01T00:38:32.421Z,1005.72
2022-08-01T00:39:03.843Z,1005.82
2022-08-01T00:39:35.625Z,1005.93
2022-08-01T00:40:07.475Z,1005.93
2022-08-01T00:40:34.611Z,1005.82
2022-08-01T00:40:55.468Z,1005.82
2022-08-01T00:41:28.615Z,1005.82
2022-08-01T00:42:00.557Z,1005.62
2022-08-01T00:42:31.532Z,1005.62
2022-08-01T00:43:04.432Z,1005.72
2022-08-01T00:43:36.080Z,1005.72
2022-08-01T00:44:08.528Z,1005.72
2022-08-01T00:44:34.616Z,1005.72
2022-08-01T00:44:55.465Z,1005.72
2022-08-01T00:45:27.743Z,1005.72
2022-08-01T00:45:59.629Z,1005.72
2022-08-01T00:46:31.453Z,1005.72
2022-08-01T00:47:04.493Z,1005.62
2022-08-01T00:47:34.641Z,1005.72
2022-08-01T00:47:55.292Z,1005.72
2022-08-01T00:48:24.509Z,1005.72
2022-08-01T00:48:42.500Z,1005.72
2022-08-01T00:49:11.592Z,1005.72
2022-08-01T00:49:35.020Z,1006.03
2022-08-01T00:49:59.539Z,1006.03
2022-08-01T00:50:32.413Z,1006.03
2022-08-01T00:51:03.809Z,1005.62
2022-08-01T00:51:36.025Z,1005.93
2022-08-01T00:52:07.842Z,1005.93
2022-08-01T00:52:34.744Z,1005.82
2022-08-01T00:52:55.419Z,1005.82
2022-08-01T00:53:28.271Z,1005.82
2022-08-01T00:54:00.372Z,1005.93
2022-08-01T00:54:31.511Z,1005.93
2022-08-01T00:55:05.846Z,1005.72
2022-08-01T00:55:34.983Z,1005.72
2022-08-01T00:55:51.622Z,1005.72
2022-08-01T00:56:23.433Z,1005.72
2022-08-01T00:56:40.650Z,1005.62
2022-08-01T00:57:12.448Z,1005.62
2022-08-01T00:58:03.680Z,1005.93
2022-08-01T00:58:16.347Z,1005.93
2022-08-01T00:58:34.641Z,1005.72
2022-08-01T00:59:03.690Z,1005.72
2022-08-01T00:59:35.635Z,1005.82
2022-08-01T01:00:07.500Z,1005.82
2022-08-01T01:00:52.441Z,1005.82
2022-08-01T01:00:55.510Z,1005.82
2022-08-01T01:01:36.280Z,1005.82
2022-08-01T01:01:59.568Z,1005.82
2022-08-01T01:02:33.427Z,1005.82
2022-08-01T01:03:03.676Z,1005.62
2022-08-01T01:03:57.379Z,1005.72
2022-08-01T01:04:08.536Z,1005.72
2022-08-01T01:04:35.620Z,1005.62
2022-08-01T01:04:55.514Z,1005.62
2022-08-01T01:05:27.447Z,1005.62
2022-08-01T01:06:01.159Z,1005.62
2022-08-01T01:06:31.439Z,1005.62
2022-08-01T01:07:05.458Z,1005.42
2022-08-01T01:07:34.625Z,1005.72
2022-08-01T01:07:51.813Z,1005.72
2022-08-01T01:08:24.368Z,1005.72
2022-08-01T01:08:42.466Z,1005.62
2022-08-01T01:09:12.335Z,1005.62
2022-08-01T01:09:34.643Z,1005.62
2022-08-01T01:09:59.487Z,1005.62
2022-08-01T01:10:32.560Z,1005.62
2022-08-01T01:11:03.651Z,1005.82
2022-08-01T01:11:34.641Z,1005.62
2022-08-01T01:11:51.888Z,1005.62
2022-08-01T01:12:24.317Z,1005.62
2022-08-01T01:12:41.907Z,1005.82
2022-08-01T01:13:11.458Z,1005.82
2022-08-01T01:13:34.725Z,1005.52
2022-08-01T01:13:59.507Z,1005.52
2022-08-01T01:14:32.654Z,1005.52
2022-08-01T01:15:03.754Z,1005.93
2022-08-01T01:15:37.543Z,1005.62
2022-08-01T01:16:07.393Z,1005.62
2022-08-01T01:16:34.632Z,1005.72
2022-08-01T01:16:55.434Z,1005.72
2022-08-01T01:17:40.699Z,1005.72
2022-08-01T01:18:16.394Z,1005.72
2022-08-01T01:18:34.637Z,1005.82
2022-08-01T01:19:04.429Z,1005.82
2022-08-01T01:19:35.817Z,1005.82
2022-08-01T01:20:07.449Z,1005.82
2022-08-01T01:20:36.704Z,1005.52
2022-08-01T01:20:55.423Z,1005.52
2022-08-01T01:21:28.454Z,1005.52
2022-08-01T01:21:59.478Z,1005.82
2022-08-01T01:22:32.466Z,1005.82
2022-08-01T01:23:04.403Z,1005.82
2022-08-01T01:23:36.804Z,1006.03
2022-08-01T01:24:08.448Z,1006.03
2022-08-01T01:24:34.651Z,1005.72
2022-08-01T01:24:55.455Z,1005.72
2022-08-01T01:25:27.756Z,1005.72
2022-08-01T01:26:01.286Z,1005.82
2022-08-01T01:26:31.669Z,1005.82
2022-08-01T01:27:04.412Z,1005.62
2022-08-01T01:27:34.782Z,1005.82
2022-08-01T01:27:51.207Z,1005.82
2022-08-01T01:28:23.376Z,1005.82
2022-08-01T01:28:40.630Z,1005.72
2022-08-01T01:29:12.383Z,1005.72
2022-08-01T01:29:58.600Z,1005.82
2022-08-01T01:30:16.392Z,1005.82
2022-08-01T01:30:34.736Z,1005.72
2022-08-01T01:31:03.463Z,1005.72
2022-08-01T01:31:34.627Z,1005.82
2022-08-01T01:31:51.770Z,1005.82
2022-08-01T01:32:28.789Z,1005.82
2022-08-01T01:32:42.442Z,1005.93
2022-08-01T01:33:11.469Z,1005.93
2022-08-01T01:33:34.622Z,1005.82
2022-08-01T01:33:59.466Z,1005.82
2022-08-01T01:34:32.403Z,1005.82
2022-08-01T01:35:03.516Z,1005.82
2022-08-01T01:35:36.503Z,1005.82
2022-08-01T01:36:07.598Z,1005.82
2022-08-01T01:36:35.598Z,1005.82
2022-08-01T01:36:56.410Z,1005.82
2022-08-01T01:37:27.704Z,1005.82
2022-08-01T01:38:00.434Z,1005.82
2022-08-01T01:38:31.474Z,1005.82
2022-08-01T01:39:04.339Z,1006.13
2022-08-01T01:39:34.663Z,1005.93
2022-08-01T01:39:54.365Z,1005.93
2022-08-01T01:40:23.444Z,1005.93
2022-08-01T01:40:41.669Z,1005.82
2022-08-01T01:41:12.353Z,1005.82
2022-08-01T01:41:34.614Z,1005.93
2022-08-01T01:42:00.411Z,1005.93
2022-08-01T01:42:31.418Z,1005.93
2022-08-01T01:43:03.397Z,1005.82
2022-08-01T01:43:36.083Z,1005.82
2022-08-01T01:44:07.402Z,1005.82
2022-08-01T01:44:34.627Z,1005.72
2022-08-01T01:44:55.417Z,1005.72
2022-08-01T01:45:28.379Z,1005.72
2022-08-01T01:45:59.470Z,1006.03
2022-08-01T01:46:37.626Z,1006.03
2022-08-01T01:46:47.907Z,1006.03
2022-08-01T01:47:19.372Z,1006.03
2022-08-01T01:47:51.422Z,1005.82
2022-08-01T01:48:23.410Z,1005.82
2022-08-01T01:48:42.436Z,1006.03
2022-08-01T01:49:12.693Z,1006.03
2022-08-01T01:49:35.435Z,1005.82
2022-08-01T01:49:59.454Z,1005.82
2022-08-01T01:50:32.435Z,1005.82
2022-08-01T01:51:03.494Z,1006.03
2022-08-01T01:51:34.603Z,1005.82
2022-08-01T01:52:07.051Z,1005.82
2022-08-01T01:52:25.261Z,1005.82
2022-08-01T01:52:42.461Z,1005.93
2022-08-01T01:53:15.114Z,1005.93
2022-08-01T01:53:34.613Z,1005.93
2022-08-01T01:53:59.430Z,1005.93
2022-08-01T01:54:31.411Z,1005.93
2022-08-01T01:55:03.513Z,1006.23
2022-08-01T01:55:49.049Z,1006.33
2022-08-01T01:56:08.527Z,1006.33
2022-08-01T01:56:35.205Z,1006.03
2022-08-01T01:56:55.633Z,1006.03
2022-08-01T01:57:28.456Z,1006.03
2022-08-01T01:57:59.434Z,1006.03
2022-08-01T01:58:31.422Z,1006.03
2022-08-01T01:59:03.417Z,1006.13
2022-08-01T01:59:34.600Z,1006.23
2022-08-01T02:00:06.830Z,1006.23
2022-08-01T02:00:25.790Z,1006.23
2022-08-01T02:00:42.367Z,1006.23
2022-08-01T02:01:14.806Z,1006.23
2022-08-01T02:01:58.632Z,1006.13
2022-08-01T02:02:15.913Z,1006.13
2022-08-01T02:02:36.608Z,1005.93
2022-08-01T02:03:03.557Z,1005.93
2022-08-01T02:03:35.823Z,1006.13
2022-08-01T02:04:07.405Z,1006.13
2022-08-01T02:04:34.702Z,1006.33
2022-08-01T02:04:55.431Z,1006.33
2022-08-01T02:05:27.425Z,1006.33
2022-08-01T02:05:59.981Z,1006.03
2022-08-01T02:06:31.366Z,1006.03
2022-08-01T02:07:04.279Z,1005.93
2022-08-01T02:07:34.632Z,1005.93
2022-08-01T02:08:06.798Z,1005.93
2022-08-01T02:08:23.979Z,1005.93
2022-08-01T02:08:41.129Z,1005.82
2022-08-01T02:09:12.460Z,1005.82
2022-08-01T02:09:36.700Z,1005.93
2022-08-01T02:09:59.568Z,1005.93
2022-08-01T02:10:32.814Z,1005.93
2022-08-01T02:11:04.457Z,1006.03
2022-08-01T02:11:35.662Z,1005.93
2022-08-01T02:12:11.466Z,1005.93
2022-08-01T02:12:34.608Z,1006.13
2022-08-01T02:12:56.211Z,1006.13
2022-08-01T02:13:27.783Z,1006.13
2022-08-01T02:13:59.996Z,1006.13
2022-08-01T02:14:31.399Z,1006.13
2022-08-01T02:15:05.371Z,1006.33
2022-08-01T02:15:34.598Z,1006.13
2022-08-01T02:15:59.494Z,1006.13
2022-08-01T02:16:24.425Z,1006.13
2022-08-01T02:16:42.557Z,1006.23
2022-08-01T02:17:11.985Z,1006.23
2022-08-01T02:17:36.721Z,1006.13
2022-08-01T02:18:01.188Z,1006.13
2022-08-01T02:18:31.362Z,1006.13
2022-08-01T02:19:05.552Z,1006.13
2022-08-01T02:19:37.842Z,1006.13
2022-08-01T02:19:52.249Z,1006.13
2022-08-01T02:20:25.316Z,1006.13
2022-08-01T02:20:43.762Z,1006.03
2022-08-01T02:21:13.201Z,1006.03
2022-08-01T02:21:36.306Z,1006.13
2022-08-01T02:22:00.437Z,1006.13
2022-08-01T02:22:33.894Z,1006.13
2022-08-01T02:23:03.466Z,1006.13
2022-08-01T02:23:35.514Z,1006.03
2022-08-01T02:24:07.481Z,1006.03
2022-08-01T02:24:35.439Z,1006.03
2022-08-01T02:24:57.110Z,1006.03
2022-08-01T02:25:27.602Z,1006.03
2022-08-01T02:26:08.649Z,1006.13
2022-08-01T02:26:31.426Z,1006.13
2022-08-01T02:27:07.188Z,1006.13
2022-08-01T02:27:35.721Z,1006.03
2022-08-01T02:28:08.797Z,1006.03
2022-08-01T02:28:35.552Z,1006.03
2022-08-01T02:28:57.172Z,1006.03
2022-08-01T02:29:28.556Z,1006.03
2022-08-01T02:29:59.451Z,1006.23
2022-08-01T02:30:32.311Z,1006.23
2022-08-01T02:31:04.653Z,1006.23
2022-08-01T02:31:36.672Z,1006.23
2022-08-01T02:32:07.708Z,1006.23
2022-08-01T02:32:34.636Z,1006.13
2022-08-01T02:32:55.409Z,1006.13
2022-08-01T02:33:28.278Z,1006.13
2022-08-01T02:33:59.452Z,1006.13
2022-08-01T02:34:32.185Z,1006.13
2022-08-01T02:35:03.486Z,1005.93
2022-08-01T02:35:36.236Z,1006.33
2022-08-01T02:36:42.079Z,1006.33
2022-08-01T02:37:11.418Z,1006.33
2022-08-01T02:37:36.338Z,1006.33
2022-08-01T02:37:59.443Z,1006.33
2022-08-01T02:38:31.372Z,1006.33
2022-08-01T02:39:07.142Z,1005.93
2022-08-01T02:39:35.745Z,1006.03
2022-08-01T02:40:07.897Z,1006.03
2022-08-01T02:40:35.743Z,1006.13
2022-08-01T02:40:56.281Z,1006.13
2022-08-01T02:41:28.404Z,1006.13
2022-08-01T02:41:59.383Z,1006.13
2022-08-01T02:42:32.353Z,1006.13
2022-08-01T02:43:04.574Z,1006.33
2022-08-01T02:43:36.572Z,1006.13
2022-08-01T02:44:08.285Z,1006.13
2022-08-01T02:44:37.532Z,1006.13
2022-08-01T02:44:56.344Z,1006.13
2022-08-01T02:45:29.044Z,1006.13
2022-08-01T02:45:59.392Z,1006.33
2022-08-01T02:46:31.888Z,1006.33
2022-08-01T02:47:03.552Z,1006.23
2022-08-01T02:47:36.329Z,1006.03
2022-08-01T02:48:07.374Z,1006.03
2022-08-01T02:48:35.612Z,1006.13
2022-08-01T02:48:55.463Z,1006.13
2022-08-01T02:49:27.453Z,1006.13
2022-08-01T02:49:59.990Z,1006.13
2022-08-01T02:50:32.365Z,1006.13
2022-08-01T02:51:04.882Z,1006.13
2022-08-01T02:51:35.727Z,1006.13
2022-08-01T02:52:09.113Z,1006.13
2022-08-01T02:52:34.634Z,1006.13
2022-08-01T02:52:55.503Z,1006.13
2022-08-01T02:53:38.982Z,1006.13
2022-08-01T02:53:59.504Z,1006.03
2022-08-01T02:54:31.446Z,1006.03
2022-08-01T02:55:03.535Z,1006.03
2022-08-01T02:55:34.770Z,1006.13
2022-08-01T02:55:51.223Z,1006.13
2022-08-01T02:56:23.863Z,1006.13
2022-08-01T02:56:41.115Z,1006.13
2022-08-01T02:57:13.943Z,1006.13
2022-08-01T02:57:47.827Z,1005.93
2022-08-01T02:58:00.745Z,1005.93
2022-08-01T02:58:31.892Z,1005.93
2022-08-01T02:59:03.348Z,1006.13
2022-08-01T02:59:36.404Z,1006.43
2022-08-01T03:00:08.503Z,1006.43
2022-08-01T03:00:34.610Z,1005.93
2022-08-01T03:00:55.445Z,1005.93
2022-08-01T03:01:27.419Z,1005.93
2022-08-01T03:02:00.583Z,1006.13
2022-08-01T03:02:32.303Z,1006.13
2022-08-01T03:03:05.752Z,1006.13
2022-08-01T03:03:36.814Z,1006.33
2022-08-01T03:04:09.032Z,1006.33
2022-08-01T03:04:34.869Z,1006.23
2022-08-01T03:04:57.259Z,1006.23
2022-08-01T03:05:29.412Z,1006.23
2022-08-01T03:05:59.432Z,1006.23
2022-08-01T03:06:31.399Z,1006.23
2022-08-01T03:07:03.383Z,1006.33
2022-08-01T03:07:38.995Z,1005.93
2022-08-01T03:07:51.135Z,1005.93
2022-08-01T03:08:24.034Z,1005.93
2022-08-01T03:08:41.284Z,1005.93
2022-08-01T03:09:12.889Z,1005.93
2022-08-01T03:09:35.379Z,1006.03
2022-08-01T03:09:59.384Z,1006.03
2022-08-01T03:10:31.859Z,1006.03
2022-08-01T03:11:03.377Z,1006.23
2022-08-01T03:11:36.126Z,1006.03
2022-08-01T03:12:08.813Z,1006.03
2022-08-01T03:12:34.653Z,1006.13
2022-08-01T03:12:55.489Z,1006.13
2022-08-01T03:13:27.384Z,1006.13
2022-08-01T03:13:59.884Z,1006.13
2022-08-01T03:14:31.421Z,1006.13
2022-08-01T03:15:04.445Z,1006.23
2022-08-01T03:15:34.612Z,1006.33
2022-08-01T03:15:51.094Z,1006.33
2022-08-01T03:16:23.394Z,1006.33
2022-08-01T03:16:40.818Z,1006.23
2022-08-01T03:17:18.985Z,1006.23
2022-08-01T03:17:29.383Z,1006.23
2022-08-01T03:18:01.320Z,1006.13
2022-08-01T03:18:32.357Z,1006.13
2022-08-01T03:19:03.331Z,1006.13
2022-08-01T03:19:36.220Z,1006.03
2022-08-01T03:20:08.330Z,1006.03
2022-08-01T03:20:35.213Z,1006.33
2022-08-01T03:20:55.480Z,1006.33
2022-08-01T03:21:28.659Z,1006.33
2022-08-01T03:22:00.049Z,1006.03
2022-08-01T03:22:31.399Z,1006.03
2022-08-01T03:23:04.419Z,1006.13
2022-08-01T03:23:38.381Z,1006.03
2022-08-01T03:24:07.978Z,1006.03
2022-08-01T03:24:34.650Z,1006.13
2022-08-01T03:24:55.465Z,1006.13
2022-08-01T03:25:27.313Z,1006.13
2022-08-01T03:25:59.539Z,1006.13
2022-08-01T03:26:31.383Z,1006.13
2022-08-01T03:27:03.389Z,1006.23
2022-08-01T03:27:35.526Z,1006.03
2022-08-01T03:28:07.458Z,1006.03
2022-08-01T03:28:35.497Z,1006.23
2022-08-01T03:28:55.418Z,1006.23
2022-08-01T03:29:28.282Z,1006.23
2022-08-01T03:30:00.763Z,1006.03
2022-08-01T03:30:31.867Z,1006.03
2022-08-01T03:31:03.322Z,1006.13
2022-08-01T03:31:35.203Z,1006.13
2022-08-01T03:32:07.607Z,1006.13
2022-08-01T03:32:34.639Z,1006.13
2022-08-01T03:32:56.238Z,1006.13
2022-08-01T03:33:27.377Z,1006.13
2022-08-01T03:34:05.367Z,1006.33
2022-08-01T03:34:31.394Z,1006.33
2022-08-01T03:35:04.287Z,1006.03
2022-08-01T03:35:35.622Z,1005.93
2022-08-01T03:36:08.061Z,1005.93
2022-08-01T03:36:36.057Z,1006.03
2022-08-01T03:36:55.504Z,1006.03
2022-08-01T03:37:27.407Z,1006.03
2022-08-01T03:38:15.783Z,1006.03
2022-08-01T03:38:31.360Z,1006.03
2022-08-01T03:39:03.365Z,1006.03
2022-08-01T03:39:34.641Z,1006.23
2022-08-01T03:40:06.791Z,1006.23
2022-08-01T03:40:23.794Z,1006.23
2022-08-01T03:40:41.059Z,1006.13
2022-08-01T03:41:11.384Z,1006.13
2022-08-01T03:41:35.512Z,1006.03
2022-08-01T03:41:59.509Z,1006.03
2022-08-01T03:42:34.407Z,1006.03
2022-08-01T03:43:03.353Z,1006.03
2022-08-01T03:43:36.127Z,1006.13
2022-08-01T03:44:08.292Z,1006.13
2022-08-01T03:44:34.753Z,1006.23
2022-08-01T03:44:55.393Z,1006.23
2022-08-01T03:45:27.348Z,1006.23
2022-08-01T03:45:59.857Z,1006.23
2022-08-01T03:46:31.424Z,1006.23
2022-08-01T03:47:03.859Z,1005.93
2022-08-01T03:47:34.663Z,1006.03
2022-08-01T03:47:51.998Z,1006.03
2022-08-01T03:48:24.040Z,1006.03
2022-08-01T03:48:41.402Z,1006.13
2022-08-01T03:49:12.018Z,1006.13
2022-08-01T03:49:36.788Z,1006.23
2022-08-01T03:49:59.389Z,1006.23
2022-08-01T03:50:32.357Z,1006.23
2022-08-01T03:51:03.303Z,1006.13
2022-08-01T03:51:34.650Z,1006.23
2022-08-01T03:51:51.163Z,1006.23
2022-08-01T03:52:23.873Z,1006.23
2022-08-01T03:52:41.152Z,1005.93
2022-08-01T03:53:11.317Z,1005.93
2022-08-01T03:53:34.912Z,1006.03
2022-08-01T03:53:59.410Z,1006.03
2022-08-01T03:54:31.936Z,1006.03
2022-08-01T03:55:03.480Z,1006.13
2022-08-01T03:55:36.061Z,1005.93
2022-08-01T03:56:08.270Z,1005.93
2022-08-01T03:56:34.648Z,1006.33
2022-08-01T03:56:55.425Z,1006.33
2022-08-01T03:57:36.502Z,1006.33
2022-08-01T03:58:00.070Z,1006.33
2022-08-01T03:58:31.494Z,1006.33
2022-08-01T03:59:04.355Z,1006.23
2022-08-01T03:59:34.699Z,1006.03
2022-08-01T03:59:52.265Z,1006.03
2022-08-01T04:00:23.563Z,1006.03
2022-08-01T04:00:40.955Z,1006.03
2022-08-01T04:01:15.485Z,1006.03
2022-08-01T04:01:35.420Z,1006.03
2022-08-01T04:01:59.840Z,1006.03
2022-08-01T04:02:31.563Z,1006.03
2022-08-01T04:03:03.395Z,1006.23
2022-08-01T04:03:34.723Z,1006.23
2022-08-01T04:03:51.149Z,1006.23
2022-08-01T04:04:24.010Z,1006.23
2022-08-01T04:04:41.214Z,1006.23
2022-08-01T04:05:11.331Z,1006.23
2022-08-01T04:05:34.746Z,1006.23
2022-08-01T04:06:01.314Z,1006.23
2022-08-01T04:06:32.420Z,1006.23
2022-08-01T04:07:03.391Z,1005.93
2022-08-01T04:07:35.247Z,1006.23
2022-08-01T04:08:07.931Z,1006.23
2022-08-01T04:08:35.466Z,1006.13
2022-08-01T04:08:55.513Z,1006.13
2022-08-01T04:09:27.350Z,1006.13
2022-08-01T04:10:02.028Z,1005.93
2022-08-01T04:10:32.406Z,1005.93
2022-08-01T04:11:04.944Z,1006.23
2022-08-01T04:11:35.667Z,1005.93
2022-08-01T04:12:12.131Z,1005.93
2022-08-01T04:12:34.710Z,1006.23
2022-08-01T04:12:55.452Z,1006.23
2022-08-01T04:13:29.423Z,1006.23
2022-08-01T04:13:59.416Z,1006.23
2022-08-01T04:14:31.365Z,1006.23
2022-08-01T04:15:03.465Z,1006.13
2022-08-01T04:15:34.694Z,1006.13
2022-08-01T04:15:51.147Z,1006.13
2022-08-01T04:16:24.195Z,1006.13
2022-08-01T04:16:42.030Z,1006.13
2022-08-01T04:17:11.379Z,1006.13
2022-08-01T04:17:34.733Z,1006.13
2022-08-01T04:17:59.461Z,1006.13
2022-08-01T04:18:32.006Z,1006.13
2022-08-01T04:19:03.322Z,1006.03
2022-08-01T04:19:35.361Z,1006.13
2022-08-01T04:20:07.401Z,1006.13
2022-08-01T04:20:34.854Z,1006.33
2022-08-01T04:20:55.388Z,1006.33
2022-08-01T04:21:27.360Z,1006.33
2022-08-01T04:21:59.892Z,1005.93
2022-08-01T04:22:31.426Z,1005.93
2022-08-01T04:23:03.965Z,1006.23
2022-08-01T04:23:34.657Z,1006.23
2022-08-01T04:23:51.668Z,1006.23
2022-08-01T04:24:23.372Z,1006.23
2022-08-01T04:24:40.965Z,1006.23
2022-08-01T04:25:11.878Z,1006.23
2022-08-01T04:25:34.640Z,1006.23
2022-08-01T04:25:59.389Z,1006.23
2022-08-01T04:26:31.419Z,1006.23
2022-08-01T04:27:03.362Z,1006.43
2022-08-01T04:27:50.884Z,1006.23
2022-08-01T04:28:07.356Z,1006.23
2022-08-01T04:28:35.977Z,1006.23
2022-08-01T04:28:55.408Z,1006.23
2022-08-01T04:29:28.288Z,1006.23
2022-08-01T04:29:59.457Z,1006.13
2022-08-01T04:30:32.807Z,1006.13
2022-08-01T04:31:03.436Z,1006.23
2022-08-01T04:31:35.301Z,1006.23
2022-08-01T04:32:07.709Z,1006.23
2022-08-01T04:32:34.847Z,1006.33
2022-08-01T04:32:55.375Z,1006.33
2022-08-01T04:33:27.412Z,1006.33
2022-08-01T04:34:00.145Z,1006.23
2022-08-01T04:34:31.469Z,1006.23
2022-08-01T04:35:04.348Z,1006.13
2022-08-01T04:36:03.994Z,1006.13
2022-08-01T04:36:07.969Z,1006.13
2022-08-01T04:36:34.740Z,1006.33
2022-08-01T04:36:57.116Z,1006.33
2022-08-01T04:37:27.476Z,1006.33
2022-08-01T04:37:59.513Z,1006.33
2022-08-01T04:38:31.485Z,1006.33
2022-08-01T04:39:03.405Z,1006.23
2022-08-01T04:39:36.461Z,1006.13
2022-08-01T04:40:07.477Z,1006.13
2022-08-01T04:40:35.729Z,1006.33
2022-08-01T04:40:55.414Z,1006.33
2022-08-01T04:41:27.850Z,1006.33
2022-08-01T04:41:59.457Z,1006.43
2022-08-01T04:42:33.596Z,1006.43
2022-08-01T04:43:03.363Z,1006.23
2022-08-01T04:43:36.203Z,1006.43
2022-08-01T04:44:07.339Z,1006.43
2022-08-01T04:44:35.659Z,1006.33
2022-08-01T04:44:55.400Z,1006.33
2022-08-01T04:45:27.328Z,1006.33
2022-08-01T04:46:00.343Z,1006.43
2022-08-01T04:46:31.371Z,1006.43
2022-08-01T04:47:03.920Z,1006.23
2022-08-01T04:47:34.667Z,1006.33
2022-08-01T04:47:51.211Z,1006.33
2022-08-01T04:48:23.434Z,1006.33
2022-08-01T04:48:40.904Z,1006.13
2022-08-01T04:49:12.456Z,1006.13
2022-08-01T04:49:48.697Z,1006.43
2022-08-01T04:49:59.400Z,1006.43
2022-08-01T04:50:31.844Z,1006.43
2022-08-01T04:51:04.850Z,1006.33
2022-08-01T04:51:34.671Z,1006.43
2022-08-01T04:51:52.353Z,1006.43
2022-08-01T04:52:24.969Z,1006.43
2022-08-01T04:52:42.466Z,1006.33
2022-08-01T04:53:11.387Z,1006.33
2022-08-01T04:53:35.863Z,1006.43
2022-08-01T04:53:59.410Z,1006.43
2022-08-01T04:54:31.936Z,1006.43
2022-08-01T04:55:03.858Z,1006.13
2022-08-01T04:55:35.338Z,1006.53
2022-08-01T04:56:07.340Z,1006.53
2022-08-01T04:56:34.738Z,1006.33
2022-08-01T04:56:55.380Z,1006.33
2022-08-01T04:57:28.626Z,1006.33
2022-08-01T04:58:00.423Z,1006.43
2022-08-01T04:58:31.365Z,1006.43
2022-08-01T04:59:04.398Z,1006.74
2022-08-01T04:59:34.732Z,1006.33
2022-08-01T04:59:51.239Z,1006.33
2022-08-01T05:00:23.373Z,1006.33
2022-08-01T05:00:40.836Z,1006.43
2022-08-01T05:01:12.012Z,1006.43
2022-08-01T05:01:34.737Z,1006.43
2022-08-01T05:01:59.404Z,1006.43
2022-08-01T05:02:31.335Z,1006.43
2022-08-01T05:03:03.407Z,1006.33
2022-08-01T05:03:38.843Z,1006.33
2022-08-01T05:04:07.383Z,1006.33
2022-08-01T05:04:34.656Z,1006.43
2022-08-01T05:04:57.107Z,1006.43
2022-08-01T05:05:29.022Z,1006.43
2022-08-01T05:05:59.357Z,1006.23
2022-08-01T05:06:32.466Z,1006.23
2022-08-01T05:07:03.275Z,1006.64
2022-08-01T05:07:44.124Z,1006.33
2022-08-01T05:08:07.451Z,1006.33
2022-08-01T05:08:34.780Z,1006.13
2022-08-01T05:08:55.321Z,1006.13
2022-08-01T05:09:30.989Z,1006.13
2022-08-01T05:09:59.946Z,1006.33
2022-08-01T05:10:31.403Z,1006.33
2022-08-01T05:11:03.871Z,1006.43
2022-08-01T05:11:34.640Z,1006.43
2022-08-01T05:11:51.129Z,1006.43
2022-08-01T05:12:23.334Z,1006.43
2022-08-01T05:12:41.118Z,1006.53
2022-08-01T05:13:11.864Z,1006.53
2022-08-01T05:13:35.084Z,1006.13
2022-08-01T05:13:59.511Z,1006.13
2022-08-01T05:14:31.356Z,1006.13
2022-08-01T05:15:03.341Z,1006.43
2022-08-01T05:15:34.673Z,1006.64
2022-08-01T05:15:52.378Z,1006.64
2022-08-01T05:16:24.194Z,1006.64
2022-08-01T05:16:42.454Z,1006.43
2022-08-01T05:17:12.062Z,1006.43
2022-08-01T05:17:36.265Z,1006.33
2022-08-01T05:17:59.435Z,1006.33
2022-08-01T05:18:32.176Z,1006.33
2022-08-01T05:19:03.346Z,1006.53
2022-08-01T05:19:35.848Z,1006.33
2022-08-01T05:20:07.313Z,1006.33
2022-08-01T05:20:34.843Z,1006.23
2022-08-01T05:20:55.393Z,1006.23
2022-08-01T05:21:27.405Z,1006.23
2022-08-01T05:22:00.339Z,1006.43
2022-08-01T05:22:33.346Z,1006.43
2022-08-01T05:23:05.063Z,1006.64
2022-08-01T05:23:42.900Z,1006.53
2022-08-01T05:24:07.947Z,1006.53
2022-08-01T05:24:35.722Z,1006.53
2022-08-01T05:24:55.295Z,1006.53
2022-08-01T05:25:53.083Z,1006.53
2022-08-01T05:26:15.820Z,1006.64
2022-08-01T05:26:34.804Z,1006.53
2022-08-01T05:27:03.410Z,1006.53
2022-08-01T05:27:35.076Z,1006.53
2022-08-01T05:28:08.095Z,1006.53
2022-08-01T05:28:35.352Z,1006.43
2022-08-01T05:28:55.350Z,1006.43
2022-08-01T05:29:27.916Z,1006.43
2022-08-01T05:29:59.355Z,1006.43
2022-08-01T05:30:31.790Z,1006.43
2022-08-01T05:31:04.523Z,1006.53
2022-08-01T05:31:36.832Z,1006.33
2022-08-01T05:32:08.841Z,1006.33
2022-08-01T05:32:35.808Z,1006.53
2022-08-01T05:32:55.378Z,1006.53
2022-08-01T05:33:27.325Z,1006.53
2022-08-01T05:34:00.326Z,1006.53
2022-08-01T05:34:31.302Z,1006.53
2022-08-01T05:35:04.005Z,1006.43
2022-08-01T05:35:48.307Z,1006.33
2022-08-01T05:36:07.862Z,1006.33
2022-08-01T05:36:34.752Z,1006.43
2022-08-01T05:36:57.051Z,1006.43
2022-08-01T05:37:27.357Z,1006.43
2022-08-01T05:38:00.327Z,1006.43
2022-08-01T05:38:31.391Z,1006.43
2022-08-01T05:39:03.323Z,1006.53
2022-08-01T05:39:35.696Z,1006.53
2022-08-01T05:40:07.324Z,1006.53
2022-08-01T05:40:34.620Z,1006.53
2022-08-01T05:40:55.348Z,1006.53
2022-08-01T05:41:27.865Z,1006.53
2022-08-01T05:41:59.363Z,1006.43
2022-08-01T05:42:31.908Z,1006.43
2022-08-01T05:43:03.323Z,1006.53
2022-08-01T05:43:35.960Z,1006.74
2022-08-01T05:44:07.287Z,1006.74
2022-08-01T05:44:34.666Z,1006.53
2022-08-01T05:44:56.221Z,1006.53
2022-08-01T05:45:27.995Z,1006.53
2022-08-01T05:45:59.889Z,1006.74
2022-08-01T05:46:32.183Z,1006.74
2022-08-01T05:47:03.974Z,1006.53
2022-08-01T05:47:35.342Z,1006.53
2022-08-01T05:48:07.828Z,1006.53